Las Varillas, Argentina
Current Conditions -  °F | °C
As of 5:00 PM on Saturday 20 Dec 2014 (Local Time) from SACO Reporting Station
Broken Clouds Broken Clouds  
Wind Chill: 73°   Ceiling: 3000
Heat Index: 73°   Visibility: 6mi
Dew Point: 55°   Wind: 14mph
Humidity: 53%   Direction: 160°SSE
Pressure: 29.65"   Gusts: NA
Location:  31.87°S, 62.72°W
Report Text: SACO 202000Z 16012KT 9999 BKN030 SCT10023/13 Q1004
Loading
Personal Weather Stations






























Interactive Weather Map New forecast layout! Learn more

10-Day Weather Forecast

Advertisements
Track Severe Weather on mobile